Aérodrome :
LOGIN :

S'inscrire | Disclaimer

   EN    FR    IT 

 










Légende :    VFR   VFR Marginal   IFR   IFR Intensif   IFR Très Intensif
Visi : 
Plafond : 
>= 8 km
>= 3000ft
5 à 8 km
1000 à 3000 ft
1500m à 5 km
500 à 1000 ft
800 à 1500m
200 à 500 ft
< 800m
< 200 ft
Symboles :   Orages  Brouillard  Fortes neiges  Fortes précipitations  Vent > 20 kt
SIGMETs :   Divers  Orages  Givrage  Turbulence  Onde Orograph.  Cendres Volcan.







- Altitude de l'aérodrome : 614 ft
- Code IATA : CRL


EBCI - Charleroi

DERNIER METAR :
  • 150920Z 21009KT 9999 BKN004 BKN006 02/01 Q0994 TEMPO BKN004

METARs EXPIRÉS :
  • 150850Z 23010KT 9999 SCT004 BKN006 02/01 Q0993 TEMPO BKN004
  • 150820Z 24010KT 9000 SCT004 BKN005 02/01 Q0993 TEMPO 4000 -DZ BKN004
  • 150750Z 23010KT 9000 SCT004 BKN005 02/01 Q0993 TEMPO 4000 -DZ BKN004
  • 150720Z 22009KT 3500 -DZ SCT004 BKN006 02/01 Q0993 TEMPO 2000 -DZ BKN004

TAF TAF EBCI
Valide du 15 à 06h jusqu'au 16 à 12h UTC


150502Z 1506/1612 24007KT 7000 SCT008 BKN016
PROB40
TEMPO 1506/1507 2500 SHSNRA BKN006 SCT012CB
PROB40
TEMPO 1512/1517 2500 SHSNRA BKN006 SCT012CB
PROB30
TEMPO 1522/1603 2500 BR BKN003
Pas de NOTAMs connus pour ce terrain.



MET'MAP, la Météo Aéronautique d'un coup d'oeil ! - Copyright ORBIFLY Décembre 2007 - Disclaimer

ORBIFLY MET'MAP TEAM :

Programmation & Développement : Alexandra Zaïnal
Conception & Développement : Baudouin d'Aumeries
Co-Programmation & Développement : Marc-Olivier Méhu
Soutien technique & logistique : Manuel Goepfert

Contact : metmap@orbifly.com




SOURCES & CREDITS :

   NOAA